Terminal Aerodrome Forecast
Issued by NWS Wilmington, OH

Current Version | Previous Version | Graphics & Text | Print | Product List | Glossary On
Versions: 1 2 3 4 5 6 7 8 9 10 11 12 13 14 15 16 17 18 19 20 21 22 23 24 25
590
FTUS41 KILN 072343
TAFILN
TAF
KILN 072343Z 0800/0824 20007KT P6SM BKN150
     FM080400 21007KT P6SM VCSH BKN040 OVC120
     FM080800 24007KT P6SM BKN025 OVC040
     FM081000 25006KT P6SM SCT040 OVC100
     FM081800 27010KT P6SM -SHRA OVC040
     FM082100 28011KT 5SM -RASN BR OVC025=

USA.gov is the U.S. government's official web portal to all federal, state and local government web resources and services.